Rawalpindi Weather



Rawalpindi's Current Weather

Temprature 33.33o few clouds

few clouds

Rain: 0 %

Min Temprature33.33o
Max Temprature33.33o
Humidity34
Wind Speed0.45 m/h
Sun Rise05:12:48
Sun Set18:55:38
Current Time: 08-May-2021 16:15:42
Lat/Lon: 33.6007, 73.0679




Rawalpindi's Geo Location



Rawalpindi's Weather Forecast

Time Overall Temp Min Temp Max Temp Humidity Wind Speed Rain
08-May-2021 (Sat)
17:00:00 few clouds 33.330 33.330 33.790 34 2.72 m/h 0 %
20:00:00 light rain 31.600 28.150 31.600 35 2.73 m/h 19 %
23:00:00 scattered clouds 28.580 26.200 28.580 38 2.98 m/h 0 %
09-May-2021 (Sun)
02:00:00 light rain 24.160 24.160 24.160 46 2.7 m/h 25 %
05:00:00 light rain 23.350 23.350 23.350 47 2.42 m/h 23 %
08:00:00 broken clouds 29.190 29.190 29.190 31 2.06 m/h 0 %
11:00:00 broken clouds 34.160 34.160 34.160 22 1.05 m/h 0 %
14:00:00 clear sky 36.450 36.450 36.450 18 3.65 m/h 0 %
17:00:00 clear sky 35.480 35.480 35.480 18 3.33 m/h 0 %
20:00:00 scattered clouds 28.450 28.450 28.450 33 1.86 m/h 0 %
23:00:00 broken clouds 25.270 25.270 25.270 43 3.93 m/h 0 %
10-May-2021 (Mon)
02:00:00 overcast clouds 24.950 24.950 24.950 42 2.08 m/h 0 %
05:00:00 light rain 23.670 23.670 23.670 47 1.89 m/h 13 %
08:00:00 light rain 28.620 28.620 28.620 33 2.01 m/h 20 %
11:00:00 broken clouds 33.430 33.430 33.430 23 1.82 m/h 0 %
14:00:00 overcast clouds 36.070 36.070 36.070 19 2.86 m/h 0 %
17:00:00 overcast clouds 36.000 36.000 36.000 19 2.64 m/h 0 %
20:00:00 scattered clouds 31.090 31.090 31.090 27 2.22 m/h 0 %
23:00:00 scattered clouds 27.800 27.800 27.800 36 2.73 m/h 0 %
11-May-2021 (Tue)
02:00:00 clear sky 26.770 26.770 26.770 37 2.53 m/h 0 %
05:00:00 light rain 25.480 25.480 25.480 39 2.94 m/h 14 %
08:00:00 light rain 30.990 30.990 30.990 27 2.47 m/h 13 %
11:00:00 light rain 35.600 35.600 35.600 20 3.18 m/h 18 %
14:00:00 clear sky 38.220 38.220 38.220 16 4.92 m/h 0 %
17:00:00 clear sky 37.820 37.820 37.820 14 1.08 m/h 0 %
20:00:00 scattered clouds 28.820 28.820 28.820 32 3.95 m/h 0 %
23:00:00 light rain 24.180 24.180 24.180 52 9.03 m/h 47 %
12-May-2021 (Wed)
02:00:00 light rain 23.950 23.950 23.950 49 6.1 m/h 69 %
05:00:00 light rain 21.900 21.900 21.900 59 2.56 m/h 18 %
08:00:00 light rain 26.170 26.170 26.170 44 1.93 m/h 124 %
11:00:00 light rain 31.050 31.050 31.050 30 2.78 m/h 71 %
14:00:00 overcast clouds 33.660 33.660 33.660 24 5 m/h 0 %
17:00:00 light rain 29.860 29.860 29.860 34 6.48 m/h 48 %
20:00:00 light rain 22.620 22.620 22.620 60 4.09 m/h 256 %
23:00:00 light rain 22.950 22.950 22.950 59 4.43 m/h 78 %
13-May-2021 (Thu)
02:00:00 light rain 21.470 21.470 21.470 65 0.7 m/h 169 %
05:00:00 moderate rain 20.540 20.540 20.540 69 2.14 m/h 369 %
08:00:00 light rain 24.010 24.010 24.010 51 1.94 m/h 190 %
11:00:00 scattered clouds 28.540 28.540 28.540 37 0.91 m/h 0 %
14:00:00 scattered clouds 31.330 31.330 31.330 29 1.07 m/h 0 %


Rawalpindi's Tourist Spots

Parks and Zoos in Rawalpindi

Famous Cities (60)